Time;durP1;ratioP1;P1;durP2;ratioP2;P2;SDS_P1;SDS_P2;PMS_P1;PMS_P2;Temp;Humidity;BMP_temperature;BMP_pressure;BME280_temperature;BME280_humidity;BME280_pressure;Samples;Min_cycle;Max_cycle;Signal;HPM_P1;HPM_P2
2022/06/30 00:00:42;;;;;;;14.23;7.05;;;;;;;;;;5054852;28;20021;-72
2022/06/30 00:03:08;;;;;;;10.48;6.95;;;;;;;;;;5054853;28;20021;-72
2022/06/30 00:05:34;;;;;;;8.95;6.70;;;;;;;;;;5054813;28;20025;-72
2022/06/30 00:08:00;;;;;;;9.88;6.82;;;;;;;;;;5054739;28;20487;-73
2022/06/30 00:10:26;;;;;;;9.65;5.50;;;;;;;;;;5054795;28;20101;-72
2022/06/30 00:12:52;;;;;;;9.40;5.55;;;;;;;;;;5054681;28;20053;-72
2022/06/30 00:15:18;;;;;;;10.25;5.72;;;;;;;;;;5054421;28;20028;-72
2022/06/30 00:17:44;;;;;;;5.82;5.07;;;;;;;;;;5054511;28;20070;-72
2022/06/30 00:20:11;;;;;;;8.23;5.57;;;;;;;;;;5054291;28;20032;-72
2022/06/30 00:22:37;;;;;;;10.05;5.75;;;;;;;;;;5054613;28;20089;-72
2022/06/30 00:25:03;;;;;;;7.97;5.43;;;;;;;;;;5054568;28;20029;-72
2022/06/30 00:27:29;;;;;;;8.85;5.68;;;;;;;;;;5054419;28;20036;-72
2022/06/30 00:29:55;;;;;;;8.88;5.63;;;;;;;;;;5054410;28;20435;-73
2022/06/30 00:32:21;;;;;;;7.82;5.57;;;;;;;;;;5054341;28;20482;-72
2022/06/30 00:34:47;;;;;;;7.63;5.65;;;;;;;;;;5054303;28;20028;-72
2022/06/30 00:37:13;;;;;;;8.32;5.53;;;;;;;;;;5054263;28;20046;-72
2022/06/30 00:39:39;;;;;;;7.65;5.40;;;;;;;;;;5054045;28;20036;-72
2022/06/30 00:42:06;;;;;;;9.55;5.90;;;;;;;;;;5054020;28;20104;-72
2022/06/30 00:44:32;;;;;;;11.15;6.05;;;;;;;;;;5053671;28;20433;-72
2022/06/30 00:46:58;;;;;;;9.35;5.75;;;;;;;;;;5053975;28;20025;-72
2022/06/30 00:49:25;;;;;;;11.40;6.43;;;;;;;;;;5053631;28;20083;-72
2022/06/30 00:51:51;;;;;;;9.52;6.40;;;;;;;;;;5053882;28;20404;-72
2022/06/30 00:54:17;;;;;;;12.48;6.80;;;;;;;;;;5051678;28;20343;-73
2022/06/30 00:56:45;;;;;;;10.50;6.32;;;;;;;;;;5053873;28;20368;-73
2022/06/30 00:59:13;;;;;;;10.32;6.50;;;;;;;;;;5053491;28;20049;-73
2022/06/30 01:01:40;;;;;;;10.73;6.25;;;;;;;;;;5053801;28;20025;-72
2022/06/30 01:04:07;;;;;;;9.02;5.97;;;;;;;;;;5053626;28;20471;-73
2022/06/30 01:06:33;;;;;;;11.27;5.65;;;;;;;;;;5052215;28;20048;-73
2022/06/30 01:08:59;;;;;;;10.88;7.35;;;;;;;;;;5053517;28;20415;-73
2022/06/30 01:14:10;;;;;;;12.05;6.78;;;;;;;;;;5053298;28;20136;-73
2022/06/30 01:16:38;;;;;;;9.50;6.13;;;;;;;;;;5053570;28;20039;-73
2022/06/30 01:19:04;;;;;;;10.48;7.40;;;;;;;;;;5053137;28;20025;-72
2022/06/30 01:21:30;;;;;;;13.27;7.90;;;;;;;;;;5053412;28;20035;-73
2022/06/30 01:23:58;;;;;;;10.88;6.65;;;;;;;;;;5053313;28;20475;-72
2022/06/30 01:26:24;;;;;;;9.45;6.55;;;;;;;;;;5053203;28;20019;-73
2022/06/30 01:28:51;;;;;;;11.40;7.72;;;;;;;;;;5053053;28;20475;-73
2022/06/30 01:31:17;;;;;;;9.25;7.20;;;;;;;;;;5053331;28;20044;-72
2022/06/30 01:33:44;;;;;;;11.30;7.70;;;;;;;;;;5053134;28;20080;-72
2022/06/30 01:36:10;;;;;;;10.25;7.68;;;;;;;;;;5053055;28;20036;-73
2022/06/30 01:38:36;;;;;;;14.00;7.78;;;;;;;;;;5052939;28;20033;-73
2022/06/30 01:41:02;;;;;;;11.43;8.30;;;;;;;;;;5053004;28;20079;-73
2022/06/30 01:43:28;;;;;;;13.30;8.32;;;;;;;;;;5052813;28;20021;-73
2022/06/30 01:45:54;;;;;;;15.07;8.18;;;;;;;;;;5052881;28;20036;-73
2022/06/30 01:48:20;;;;;;;11.18;7.45;;;;;;;;;;5052784;28;20029;-72
2022/06/30 01:50:46;;;;;;;9.75;7.25;;;;;;;;;;5052715;28;20503;-72
2022/06/30 01:53:12;;;;;;;11.20;8.00;;;;;;;;;;5052721;28;20025;-72
2022/06/30 01:55:38;;;;;;;13.00;8.77;;;;;;;;;;5051291;28;20502;-73
2022/06/30 01:58:04;;;;;;;10.65;7.53;;;;;;;;;;5052424;28;20411;-73
2022/06/30 02:00:31;;;;;;;15.75;8.38;;;;;;;;;;5052494;28;20028;-73
2022/06/30 02:02:58;;;;;;;14.15;9.07;;;;;;;;;;5052270;28;20025;-73
2022/06/30 02:05:24;;;;;;;11.82;9.02;;;;;;;;;;5052306;28;20032;-72
2022/06/30 02:07:50;;;;;;;12.32;8.43;;;;;;;;;;5052350;28;20025;-72
2022/06/30 02:10:18;;;;;;;10.90;8.40;;;;;;;;;;5052322;28;20032;-73
2022/06/30 02:12:45;;;;;;;12.38;8.18;;;;;;;;;;5052368;28;20120;-73
2022/06/30 02:15:11;;;;;;;12.57;8.48;;;;;;;;;;5036552;28;20044;-73
2022/06/30 02:17:37;;;;;;;12.95;8.68;;;;;;;;;;5032215;28;20040;-73
2022/06/30 02:20:04;;;;;;;17.52;9.27;;;;;;;;;;5032197;28;20033;-73
2022/06/30 02:22:30;;;;;;;12.00;8.73;;;;;;;;;;5032248;28;20030;-73
2022/06/30 02:24:56;;;;;;;13.07;7.78;;;;;;;;;;5032339;28;20030;-73
2022/06/30 02:27:24;;;;;;;13.52;7.97;;;;;;;;;;5032235;28;20079;-73
2022/06/30 02:29:51;;;;;;;11.23;8.40;;;;;;;;;;5032183;28;20027;-72
2022/06/30 02:32:17;;;;;;;12.13;8.60;;;;;;;;;;5032103;28;20027;-73
2022/06/30 02:34:43;;;;;;;11.93;8.57;;;;;;;;;;5032114;28;20032;-73
2022/06/30 02:37:09;;;;;;;15.05;8.02;;;;;;;;;;5032067;28;20043;-73
2022/06/30 02:39:36;;;;;;;11.60;8.43;;;;;;;;;;5032041;28;20142;-73
2022/06/30 02:42:02;;;;;;;11.27;8.30;;;;;;;;;;5032019;28;20021;-73
2022/06/30 02:44:28;;;;;;;11.02;8.90;;;;;;;;;;5033944;28;20018;-73
2022/06/30 02:46:54;;;;;;;9.90;7.97;;;;;;;;;;5052058;28;20423;-73
2022/06/30 02:49:21;;;;;;;13.32;8.40;;;;;;;;;;5051758;28;20155;-73
2022/06/30 02:51:47;;;;;;;12.73;7.75;;;;;;;;;;5051814;28;20028;-73
2022/06/30 02:54:14;;;;;;;17.08;8.70;;;;;;;;;;5051563;28;20107;-72
2022/06/30 02:56:40;;;;;;;10.40;7.72;;;;;;;;;;5051679;28;20068;-73
2022/06/30 02:59:08;;;;;;;12.68;7.72;;;;;;;;;;5051377;28;20492;-73
2022/06/30 03:01:34;;;;;;;10.48;7.93;;;;;;;;;;5050281;28;20060;-73
2022/06/30 03:04:01;;;;;;;12.70;8.18;;;;;;;;;;5051675;28;20028;-73
2022/06/30 03:06:28;;;;;;;9.70;7.50;;;;;;;;;;5051705;28;20078;-73
2022/06/30 03:08:55;;;;;;;11.98;8.40;;;;;;;;;;5051557;28;20029;-73
2022/06/30 03:11:21;;;;;;;11.55;8.25;;;;;;;;;;5051673;28;20031;-72
2022/06/30 03:13:47;;;;;;;11.85;7.70;;;;;;;;;;5048728;28;20060;-73
2022/06/30 03:16:13;;;;;;;10.75;7.40;;;;;;;;;;5031589;28;20033;-73
2022/06/30 03:18:40;;;;;;;11.32;8.15;;;;;;;;;;5033225;28;20044;-73
2022/06/30 03:21:06;;;;;;;13.63;7.57;;;;;;;;;;5035672;28;20026;-73
2022/06/30 03:23:32;;;;;;;10.98;8.27;;;;;;;;;;5035554;28;20026;-72
2022/06/30 03:25:58;;;;;;;10.73;8.20;;;;;;;;;;5035691;28;20033;-73
2022/06/30 03:28:24;;;;;;;11.35;7.97;;;;;;;;;;5035463;28;20088;-73
2022/06/30 03:30:50;;;;;;;12.57;8.45;;;;;;;;;;5035445;28;20029;-72
2022/06/30 03:33:17;;;;;;;12.85;8.40;;;;;;;;;;5035463;28;20486;-73
2022/06/30 03:35:44;;;;;;;12.68;8.35;;;;;;;;;;5035404;28;20095;-73
2022/06/30 03:38:10;;;;;;;12.65;8.38;;;;;;;;;;5035297;28;20128;-73
2022/06/30 03:40:36;;;;;;;10.98;7.57;;;;;;;;;;5035391;28;20013;-73
2022/06/30 03:43:02;;;;;;;14.02;8.43;;;;;;;;;;5035234;28;20479;-73
2022/06/30 03:45:29;;;;;;;13.52;9.05;;;;;;;;;;5045389;28;20107;-73
2022/06/30 03:47:55;;;;;;;13.35;8.73;;;;;;;;;;5055112;28;20047;-73
2022/06/30 03:50:21;;;;;;;14.32;9.15;;;;;;;;;;5055004;28;20025;-72
2022/06/30 03:52:47;;;;;;;12.55;8.52;;;;;;;;;;5054945;28;20032;-73
2022/06/30 03:55:14;;;;;;;12.02;8.63;;;;;;;;;;5054977;28;20036;-73
2022/06/30 03:57:40;;;;;;;14.38;8.13;;;;;;;;;;5054782;28;20041;-72
2022/06/30 04:00:06;;;;;;;12.55;7.90;;;;;;;;;;5054901;28;20025;-73
2022/06/30 04:02:32;;;;;;;11.05;8.77;;;;;;;;;;5054768;28;20116;-72
2022/06/30 04:04:58;;;;;;;13.48;8.98;;;;;;;;;;5055089;28;20167;-73
2022/06/30 04:07:25;;;;;;;20.90;10.18;;;;;;;;;;5053319;28;20071;-73
2022/06/30 04:09:51;;;;;;;16.23;10.32;;;;;;;;;;5054719;28;20029;-72
2022/06/30 04:12:17;;;;;;;13.68;10.13;;;;;;;;;;5054639;28;20032;-73
2022/06/30 04:14:43;;;;;;;16.88;9.88;;;;;;;;;;5043984;28;20025;-72
2022/06/30 04:17:09;;;;;;;14.95;10.93;;;;;;;;;;5034524;28;20383;-73
2022/06/30 04:19:37;;;;;;;15.05;10.48;;;;;;;;;;5034314;28;20115;-73
2022/06/30 04:22:03;;;;;;;20.27;11.88;;;;;;;;;;5034502;28;20095;-73
2022/06/30 04:24:29;;;;;;;17.08;11.23;;;;;;;;;;5034532;28;20034;-72
2022/06/30 04:26:55;;;;;;;18.83;12.80;;;;;;;;;;5033144;28;20479;-73
2022/06/30 04:29:21;;;;;;;20.65;12.07;;;;;;;;;;5033044;28;20021;-73
2022/06/30 04:34:32;;;;;;;18.17;11.77;;;;;;;;;;5034026;28;20128;-73
2022/06/30 04:36:58;;;;;;;15.88;11.20;;;;;;;;;;5034052;28;20440;-73
2022/06/30 04:39:24;;;;;;;19.88;11.93;;;;;;;;;;5033872;28;20408;-73
2022/06/30 04:41:50;;;;;;;17.02;11.82;;;;;;;;;;5045757;28;20451;-72
2022/06/30 04:44:16;;;;;;;17.48;11.93;;;;;;;;;;5053871;28;20032;-72
2022/06/30 04:46:42;;;;;;;23.05;13.60;;;;;;;;;;5054093;28;20040;-73
2022/06/30 04:49:08;;;;;;;21.25;12.20;;;;;;;;;;5053804;28;20032;-73
2022/06/30 04:51:34;;;;;;;18.63;11.60;;;;;;;;;;5054001;28;20069;-73
2022/06/30 04:54:00;;;;;;;17.42;11.88;;;;;;;;;;5053956;28;20091;-73
2022/06/30 04:56:26;;;;;;;20.52;11.32;;;;;;;;;;5053911;28;20091;-73
2022/06/30 04:58:52;;;;;;;22.80;12.15;;;;;;;;;;5053609;28;20125;-73
2022/06/30 05:01:18;;;;;;;23.35;12.43;;;;;;;;;;5053834;28;20061;-73
2022/06/30 05:03:44;;;;;;;22.08;13.43;;;;;;;;;;5053865;28;20128;-73
2022/06/30 05:06:10;;;;;;;22.80;12.20;;;;;;;;;;5053733;28;20041;-72
2022/06/30 05:08:36;;;;;;;19.05;12.07;;;;;;;;;;5053651;28;20100;-73
2022/06/30 05:11:03;;;;;;;18.42;11.27;;;;;;;;;;5053797;28;20029;-73
2022/06/30 05:13:29;;;;;;;18.00;12.13;;;;;;;;;;5053560;28;20060;-73
2022/06/30 05:15:55;;;;;;;15.88;12.45;;;;;;;;;;5053555;28;20078;-73
2022/06/30 05:18:21;;;;;;;21.52;13.50;;;;;;;;;;5053512;28;20476;-73
2022/06/30 05:20:47;;;;;;;20.13;12.98;;;;;;;;;;5053517;28;20090;-73
2022/06/30 05:23:13;;;;;;;21.35;13.23;;;;;;;;;;5053490;28;20028;-73
2022/06/30 05:28:23;;;;;;;17.48;12.88;;;;;;;;;;5053371;28;20462;-72
2022/06/30 05:30:50;;;;;;;17.70;12.82;;;;;;;;;;5053200;28;20037;-72
2022/06/30 05:33:19;;;;;;;20.98;14.40;;;;;;;;;;5051843;28;20482;-72
2022/06/30 05:35:45;;;;;;;21.30;14.02;;;;;;;;;;5053272;28;20073;-72
2022/06/30 05:38:11;;;;;;;19.30;14.18;;;;;;;;;;5053028;28;20032;-72
2022/06/30 05:40:37;;;;;;;21.35;14.27;;;;;;;;;;5052849;28;20025;-72
2022/06/30 05:43:03;;;;;;;25.80;14.70;;;;;;;;;;5053036;28;20055;-72
2022/06/30 05:45:29;;;;;;;21.65;14.55;;;;;;;;;;5052809;28;20101;-72
2022/06/30 05:47:55;;;;;;;22.23;14.38;;;;;;;;;;5052919;28;20025;-73
2022/06/30 05:50:22;;;;;;;21.65;14.55;;;;;;;;;;5052767;28;20509;-73
2022/06/30 05:52:50;;;;;;;20.05;14.15;;;;;;;;;;5052764;28;20021;-73
2022/06/30 05:55:17;;;;;;;21.85;14.73;;;;;;;;;;5052824;28;20425;-73
2022/06/30 05:57:56;;;;;;;21.13;13.77;;;;;;;;;;5052552;28;20080;-73
2022/06/30 06:00:23;;;;;;;22.25;15.27;;;;;;;;;;5052704;28;20027;-73
2022/06/30 06:02:49;;;;;;;22.10;13.85;;;;;;;;;;5052644;28;20027;-73
2022/06/30 06:05:15;;;;;;;21.67;13.82;;;;;;;;;;5052438;28;20455;-73
2022/06/30 06:07:42;;;;;;;23.48;14.60;;;;;;;;;;5052621;28;20091;-73
2022/06/30 06:10:08;;;;;;;24.02;13.38;;;;;;;;;;5052472;28;20025;-73
2022/06/30 06:12:35;;;;;;;19.42;14.10;;;;;;;;;;5052509;28;20444;-73
2022/06/30 06:15:01;;;;;;;22.05;14.55;;;;;;;;;;5043171;28;20124;-73
2022/06/30 06:17:29;;;;;;;19.27;13.88;;;;;;;;;;5052120;28;20096;-73
2022/06/30 06:19:55;;;;;;;22.42;14.93;;;;;;;;;;5051628;28;20121;-73
2022/06/30 06:22:21;;;;;;;21.38;15.10;;;;;;;;;;5050515;28;20021;-72
2022/06/30 06:24:47;;;;;;;23.42;14.57;;;;;;;;;;5051878;28;20025;-73
2022/06/30 06:27:13;;;;;;;24.10;14.80;;;;;;;;;;5051785;28;20029;-73
2022/06/30 06:29:39;;;;;;;23.98;14.63;;;;;;;;;;5051685;28;20102;-72
2022/06/30 06:32:05;;;;;;;20.35;14.20;;;;;;;;;;5051908;28;20095;-73
2022/06/30 06:34:31;;;;;;;21.23;14.25;;;;;;;;;;5051819;28;20024;-73
2022/06/30 06:36:57;;;;;;;23.88;14.02;;;;;;;;;;5051552;28;20021;-73
2022/06/30 06:39:23;;;;;;;23.48;13.23;;;;;;;;;;5051555;28;20017;-73
2022/06/30 06:41:49;;;;;;;23.25;14.35;;;;;;;;;;5051767;28;20025;-73
2022/06/30 06:44:15;;;;;;;21.52;14.18;;;;;;;;;;5050933;28;20471;-73
2022/06/30 06:46:41;;;;;;;21.88;15.10;;;;;;;;;;5051310;28;20372;-72
2022/06/30 06:49:08;;;;;;;21.17;14.20;;;;;;;;;;5051032;28;20451;-73
2022/06/30 06:51:35;;;;;;;24.75;14.57;;;;;;;;;;5050836;28;20052;-73
2022/06/30 06:54:01;;;;;;;23.02;14.93;;;;;;;;;;5051081;28;20017;-73
2022/06/30 06:56:27;;;;;;;24.70;15.18;;;;;;;;;;5050470;28;20013;-73
2022/06/30 06:58:54;;;;;;;23.05;16.15;;;;;;;;;;5050827;28;20037;-73
2022/06/30 07:01:20;;;;;;;23.90;15.48;;;;;;;;;;5051429;28;20499;-74
2022/06/30 07:03:46;;;;;;;23.77;16.08;;;;;;;;;;5051493;28;20320;-74
2022/06/30 07:06:12;;;;;;;22.40;15.18;;;;;;;;;;5051159;28;20104;-74
2022/06/30 07:08:38;;;;;;;24.65;16.30;;;;;;;;;;5051669;28;20048;-73
2022/06/30 07:11:05;;;;;;;23.15;16.05;;;;;;;;;;5051731;28;20472;-76
2022/06/30 07:13:32;;;;;;;27.17;16.08;;;;;;;;;;5051396;28;20025;-75
2022/06/30 07:15:59;;;;;;;25.05;16.27;;;;;;;;;;5050083;28;20063;-74
2022/06/30 07:18:25;;;;;;;25.50;16.02;;;;;;;;;;5051556;28;20028;-74
2022/06/30 07:20:52;;;;;;;24.23;17.05;;;;;;;;;;5051402;28;20538;-74
2022/06/30 07:23:18;;;;;;;23.83;17.70;;;;;;;;;;5051543;28;20490;-74
2022/06/30 07:25:44;;;;;;;23.80;15.82;;;;;;;;;;5051609;28;20021;-73
2022/06/30 07:28:10;;;;;;;22.85;16.27;;;;;;;;;;5051541;28;20021;-74
2022/06/30 07:30:37;;;;;;;22.25;15.65;;;;;;;;;;5051522;28;20017;-74
2022/06/30 07:33:03;;;;;;;20.92;16.10;;;;;;;;;;5051543;28;20036;-79
2022/06/30 07:35:29;;;;;;;20.52;14.80;;;;;;;;;;5050911;28;20028;-76
2022/06/30 07:37:55;;;;;;;24.20;15.18;;;;;;;;;;5051275;28;20032;-78
2022/06/30 07:40:21;;;;;;;23.90;15.40;;;;;;;;;;5051305;28;20021;-81
2022/06/30 07:42:48;;;;;;;24.35;15.63;;;;;;;;;;5061169;28;20078;-78
2022/06/30 07:45:14;;;;;;;25.30;17.58;;;;;;;;;;5062210;28;20029;-78
2022/06/30 07:47:42;;;;;;;23.63;15.43;;;;;;;;;;5050654;28;20045;-80
2022/06/30 07:50:09;;;;;;;25.33;15.40;;;;;;;;;;5050947;28;20418;-78
2022/06/30 07:52:35;;;;;;;24.42;15.50;;;;;;;;;;5051102;28;20452;-79
2022/06/30 07:55:01;;;;;;;20.98;14.23;;;;;;;;;;5051596;28;20173;-79
2022/06/30 07:57:27;;;;;;;26.10;14.32;;;;;;;;;;5031105;28;20526;-78
2022/06/30 07:59:53;;;;;;;22.25;15.00;;;;;;;;;;5031153;28;20468;-79
2022/06/30 08:02:19;;;;;;;21.40;15.15;;;;;;;;;;5031601;28;20056;-79
2022/06/30 08:04:45;;;;;;;23.83;15.27;;;;;;;;;;5051821;28;20059;-79
2022/06/30 08:07:12;;;;;;;21.15;14.57;;;;;;;;;;5054524;28;20033;-78
2022/06/30 08:09:38;;;;;;;20.77;13.77;;;;;;;;;;5055054;28;20037;-79
2022/06/30 08:12:06;;;;;;;18.20;12.70;;;;;;;;;;5055012;28;20063;-78
2022/06/30 08:14:32;;;;;;;21.58;14.57;;;;;;;;;;5045797;28;20032;-78
2022/06/30 08:16:58;;;;;;;23.02;12.88;;;;;;;;;;5034969;28;20388;-78
2022/06/30 08:19:24;;;;;;;21.15;12.93;;;;;;;;;;5034511;28;20036;-79
2022/06/30 08:21:50;;;;;;;18.15;12.00;;;;;;;;;;5034834;28;20379;-79
2022/06/30 08:24:17;;;;;;;19.80;12.73;;;;;;;;;;5034828;28;20056;-78
2022/06/30 08:26:43;;;;;;;20.63;12.43;;;;;;;;;;5033688;28;20021;-79
2022/06/30 08:29:11;;;;;;;22.92;12.27;;;;;;;;;;5034738;28;20040;-79
2022/06/30 08:31:38;;;;;;;18.95;11.88;;;;;;;;;;5034746;28;20025;-79
2022/06/30 08:34:04;;;;;;;18.70;11.88;;;;;;;;;;5034440;28;20108;-78
2022/06/30 08:36:30;;;;;;;18.75;10.85;;;;;;;;;;5034478;28;20476;-79
2022/06/30 08:38:57;;;;;;;17.63;10.50;;;;;;;;;;5033080;28;20021;-79
2022/06/30 08:44:09;;;;;;;15.77;7.72;;;;;;;;;;5034392;28;20032;-79
2022/06/30 08:46:37;;;;;;;20.95;6.30;;;;;;;;;;5053694;28;20036;-79
2022/06/30 08:49:03;;;;;;;13.85;7.60;;;;;;;;;;5054156;28;20036;-79
2022/06/30 08:51:30;;;;;;;13.48;6.47;;;;;;;;;;5054522;28;20021;-79
2022/06/30 08:54:00;;;;;;;8.40;5.78;;;;;;;;;;5054350;28;20476;-78
2022/06/30 08:56:30;;;;;;;13.45;5.85;;;;;;;;;;5054159;28;20029;-79
2022/06/30 08:58:56;;;;;;;9.30;5.60;;;;;;;;;;5052509;28;20049;-79
2022/06/30 09:01:22;;;;;;;10.98;5.68;;;;;;;;;;5054232;28;20468;-79
2022/06/30 09:03:49;;;;;;;10.95;4.53;;;;;;;;;;5054101;28;20021;-78
2022/06/30 09:06:15;;;;;;;10.52;4.75;;;;;;;;;;5053975;28;20095;-79
2022/06/30 09:08:41;;;;;;;8.63;5.18;;;;;;;;;;5054063;28;20061;-79
2022/06/30 09:11:07;;;;;;;8.25;4.57;;;;;;;;;;5054020;28;20032;-79
2022/06/30 09:13:49;;;;;;;10.30;4.55;;;;;;;;;;5051739;28;20067;-79
2022/06/30 09:16:17;;;;;;;18.20;4.20;;;;;;;;;;5033261;28;20034;-79
2022/06/30 09:18:44;;;;;;;10.82;3.53;;;;;;;;;;5033689;28;20036;-79
2022/06/30 09:21:17;;;;;;;8.75;3.38;;;;;;;;;;5033587;28;20106;-78
2022/06/30 09:23:44;;;;;;;10.43;4.00;;;;;;;;;;5033763;28;20026;-77
2022/06/30 09:26:15;;;;;;;11.98;4.68;;;;;;;;;;5033636;28;20025;-77
2022/06/30 09:28:44;;;;;;;12.30;4.68;;;;;;;;;;5033646;28;20071;-77
2022/06/30 09:31:11;;;;;;;8.55;4.97;;;;;;;;;;5033477;28;20511;-78
2022/06/30 09:33:41;;;;;;;8.80;4.50;;;;;;;;;;5033622;28;20025;-77
2022/06/30 09:36:19;;;;;;;15.43;4.55;;;;;;;;;;5033512;28;20510;-77
2022/06/30 09:39:00;;;;;;;10.40;4.03;;;;;;;;;;5033295;28;20040;-77
2022/06/30 09:41:27;;;;;;;11.98;4.10;;;;;;;;;;5033480;28;20491;-77
2022/06/30 09:43:53;;;;;;;12.73;4.35;;;;;;;;;;5033269;28;20030;-77
2022/06/30 09:46:19;;;;;;;11.50;4.38;;;;;;;;;;5050501;28;20029;-77
2022/06/30 09:48:45;;;;;;;8.20;4.18;;;;;;;;;;5053164;28;20029;-77
2022/06/30 09:51:12;;;;;;;8.60;3.10;;;;;;;;;;5053032;28;20521;-77
2022/06/30 09:53:38;;;;;;;9.77;3.70;;;;;;;;;;5052933;28;20024;-78
2022/06/30 09:56:12;;;;;;;8.63;3.60;;;;;;;;;;5053041;28;20025;-78
2022/06/30 09:58:42;;;;;;;11.43;3.55;;;;;;;;;;5052780;28;20059;-78
2022/06/30 10:01:08;;;;;;;8.80;3.45;;;;;;;;;;5052848;28;20017;-77
2022/06/30 10:03:34;;;;;;;7.50;4.50;;;;;;;;;;5052807;28;20040;-78
2022/06/30 10:06:07;;;;;;;11.10;4.95;;;;;;;;;;5052656;28;20029;-78
2022/06/30 10:08:34;;;;;;;8.95;3.67;;;;;;;;;;5052730;28;20456;-78
2022/06/30 10:11:00;;;;;;;9.32;3.50;;;;;;;;;;5052869;28;20051;-78
2022/06/30 10:13:27;;;;;;;9.55;3.67;;;;;;;;;;5052653;28;20066;-77
2022/06/30 10:15:54;;;;;;;10.02;3.92;;;;;;;;;;5032470;28;20048;-78
2022/06/30 10:18:21;;;;;;;7.70;3.80;;;;;;;;;;5032678;28;20029;-78
2022/06/30 10:20:47;;;;;;;7.10;2.85;;;;;;;;;;5032403;28;20036;-77
2022/06/30 10:23:13;;;;;;;7.68;3.28;;;;;;;;;;5032553;28;20025;-78
2022/06/30 10:25:41;;;;;;;5.75;2.88;;;;;;;;;;5032701;28;20068;-78
2022/06/30 10:28:07;;;;;;;9.30;4.00;;;;;;;;;;5031637;28;20033;-78
2022/06/30 10:31:00;;;;;;;7.82;3.50;;;;;;;;;;5032542;28;20487;-78
2022/06/30 10:33:29;;;;;;;6.72;2.33;;;;;;;;;;5024258;28;20094;-78
2022/06/30 10:36:04;;;;;;;8.32;3.10;;;;;;;;;;5032347;28;20384;-78
2022/06/30 10:38:30;;;;;;;11.32;3.35;;;;;;;;;;5064217;28;20052;-79
2022/06/30 10:41:04;;;;;;;8.18;2.60;;;;;;;;;;5032301;28;20033;-79
2022/06/30 10:43:30;;;;;;;7.57;2.60;;;;;;;;;;5064247;28;20026;-80
2022/06/30 10:45:57;;;;;;;7.00;2.50;;;;;;;;;;5046004;28;20546;-79
2022/06/30 10:48:23;;;;;;;6.45;2.33;;;;;;;;;;5052322;28;20465;-78
2022/06/30 10:50:51;;;;;;;12.55;3.10;;;;;;;;;;5051940;28;20031;-79
2022/06/30 10:53:22;;;;;;;6.10;2.53;;;;;;;;;;5051827;28;20479;-79
2022/06/30 10:55:51;;;;;;;7.35;2.63;;;;;;;;;;5051643;28;20063;-77
2022/06/30 10:58:19;;;;;;;9.43;2.78;;;;;;;;;;5050166;28;20128;-77
2022/06/30 11:00:50;;;;;;;6.68;2.40;;;;;;;;;;5051138;28;20027;-78
2022/06/30 11:03:32;;;;;;;7.60;2.65;;;;;;;;;;5051409;28;20033;-78
2022/06/30 11:05:59;;;;;;;4.80;2.10;;;;;;;;;;5051670;28;20025;-78
2022/06/30 11:08:57;;;;;;;6.50;2.08;;;;;;;;;;5047369;28;20048;-78
2022/06/30 11:11:28;;;;;;;5.10;2.33;;;;;;;;;;5050646;28;20075;-80
2022/06/30 11:14:03;;;;;;;5.40;2.35;;;;;;;;;;5051304;28;20022;-78
2022/06/30 11:16:32;;;;;;;9.45;2.70;;;;;;;;;;5052944;28;20040;-78
2022/06/30 11:18:58;;;;;;;10.02;2.40;;;;;;;;;;5048611;28;20421;-78
2022/06/30 11:21:25;;;;;;;5.65;1.73;;;;;;;;;;5052574;28;20025;-79
2022/06/30 11:23:53;;;;;;;5.68;1.95;;;;;;;;;;5059930;28;20013;-78
2022/06/30 11:29:05;;;;;;;7.00;1.45;;;;;;;;;;5051534;28;20043;-78
2022/06/30 11:31:33;;;;;;;5.50;1.90;;;;;;;;;;5050760;28;20017;-78
2022/06/30 11:34:02;;;;;;;4.40;1.42;;;;;;;;;;5051953;28;20029;-78
2022/06/30 11:36:28;;;;;;;6.43;1.90;;;;;;;;;;5053226;28;20029;-79
2022/06/30 11:38:59;;;;;;;5.63;1.70;;;;;;;;;;5055441;28;20032;-78
2022/06/30 11:44:11;;;;;;;4.78;1.17;;;;;;;;;;5053658;28;20041;-78
2022/06/30 11:46:51;;;;;;;8.02;1.70;;;;;;;;;;5056859;28;20028;-78
2022/06/30 11:49:17;;;;;;;3.42;1.52;;;;;;;;;;5056061;28;20037;-77
2022/06/30 11:51:44;;;;;;;11.93;1.67;;;;;;;;;;5055452;28;20110;-78
2022/06/30 11:54:11;;;;;;;4.35;1.58;;;;;;;;;;5082355;28;20056;-78
2022/06/30 11:56:44;;;;;;;7.10;1.88;;;;;;;;;;5056650;28;20547;-78
2022/06/30 11:59:10;;;;;;;5.60;1.77;;;;;;;;;;5054459;28;20057;-78
2022/06/30 12:01:36;;;;;;;4.88;1.70;;;;;;;;;;5054645;28;20012;-77
2022/06/30 12:04:18;;;;;;;6.85;2.22;;;;;;;;;;5056542;28;20021;-77
2022/06/30 12:06:44;;;;;;;3.72;1.45;;;;;;;;;;5055553;28;20068;-77
2022/06/30 12:09:11;;;;;;;7.65;2.05;;;;;;;;;;5055530;28;20036;-78
2022/06/30 12:11:38;;;;;;;7.65;2.17;;;;;;;;;;5056728;28;20021;-78
2022/06/30 12:14:04;;;;;;;10.52;1.52;;;;;;;;;;5054539;28;20467;-78
2022/06/30 12:16:30;;;;;;;5.75;1.70;;;;;;;;;;5057031;28;20050;-78
2022/06/30 12:18:56;;;;;;;8.73;1.42;;;;;;;;;;5056126;28;20360;-78
2022/06/30 12:21:22;;;;;;;5.32;1.33;;;;;;;;;;5058683;28;20028;-77
2022/06/30 12:23:49;;;;;;;3.85;1.23;;;;;;;;;;5057282;28;20367;-77
2022/06/30 12:26:16;;;;;;;5.45;1.50;;;;;;;;;;5062322;28;20017;-77
2022/06/30 12:28:46;;;;;;;3.97;1.17;;;;;;;;;;5055087;28;20028;-77
2022/06/30 12:31:22;;;;;;;3.45;1.33;;;;;;;;;;5053608;28;20028;-77
2022/06/30 12:33:48;;;;;;;3.05;1.38;;;;;;;;;;5052396;28;20025;-77
2022/06/30 12:36:15;;;;;;;5.93;2.30;;;;;;;;;;5053676;28;20052;-77
2022/06/30 12:38:41;;;;;;;15.85;2.58;;;;;;;;;;5051421;28;20040;-78
2022/06/30 12:41:13;;;;;;;7.82;2.20;;;;;;;;;;5054399;28;20041;-78
2022/06/30 12:43:47;;;;;;;6.07;2.08;;;;;;;;;;5053988;28;20877;-77
2022/06/30 12:46:14;;;;;;;7.78;2.22;;;;;;;;;;5050918;28;20040;-77
2022/06/30 12:48:44;;;;;;;6.72;2.03;;;;;;;;;;5051311;28;20033;-77
2022/06/30 12:51:12;;;;;;;7.45;2.20;;;;;;;;;;5052954;28;20536;-77
2022/06/30 12:53:39;;;;;;;8.48;2.35;;;;;;;;;;5052958;28;20029;-77
2022/06/30 12:56:06;;;;;;;8.45;1.80;;;;;;;;;;5051982;28;20055;-77
2022/06/30 12:58:54;;;;;;;4.95;2.08;;;;;;;;;;5052153;28;20081;-78
2022/06/30 13:01:20;;;;;;;5.97;1.90;;;;;;;;;;5054368;28;20020;-77
2022/06/30 13:03:48;;;;;;;11.27;2.05;;;;;;;;;;5052176;28;20024;-77
2022/06/30 13:06:15;;;;;;;6.30;1.90;;;;;;;;;;5051836;28;20120;-78
2022/06/30 13:08:43;;;;;;;6.15;1.70;;;;;;;;;;5053517;28;20025;-77
2022/06/30 13:11:11;;;;;;;6.25;2.33;;;;;;;;;;5068530;28;20035;-77
2022/06/30 13:13:37;;;;;;;9.85;2.30;;;;;;;;;;5052492;28;20032;-78
2022/06/30 13:16:03;;;;;;;5.28;2.10;;;;;;;;;;5050649;28;20467;-77
2022/06/30 13:18:29;;;;;;;4.40;1.70;;;;;;;;;;5054300;28;20027;-77
2022/06/30 13:20:55;;;;;;;5.10;1.98;;;;;;;;;;5051968;28;20151;-77
2022/06/30 13:23:21;;;;;;;6.03;1.92;;;;;;;;;;5053141;28;20423;-78
2022/06/30 13:25:47;;;;;;;10.70;2.50;;;;;;;;;;5056895;28;20493;-78
2022/06/30 13:28:13;;;;;;;7.28;2.33;;;;;;;;;;5055455;28;20060;-77
2022/06/30 13:30:40;;;;;;;8.05;2.45;;;;;;;;;;5059034;28;20086;-77
2022/06/30 13:33:06;;;;;;;11.73;2.28;;;;;;;;;;5055159;28;20383;-78
2022/06/30 13:35:32;;;;;;;5.40;2.30;;;;;;;;;;5063986;28;20550;-77
2022/06/30 13:37:58;;;;;;;4.50;2.45;;;;;;;;;;5055466;28;20057;-77
2022/06/30 13:40:24;;;;;;;5.68;2.13;;;;;;;;;;5055640;28;20017;-77
2022/06/30 13:42:50;;;;;;;3.55;2.00;;;;;;;;;;5054812;28;20387;-77
2022/06/30 13:45:16;;;;;;;6.65;2.53;;;;;;;;;;5055377;28;20519;-77
2022/06/30 13:47:42;;;;;;;4.28;2.20;;;;;;;;;;5053725;28;20459;-77
2022/06/30 13:50:08;;;;;;;7.18;2.20;;;;;;;;;;5055708;28;20029;-77
2022/06/30 13:52:35;;;;;;;8.38;1.80;;;;;;;;;;5059057;28;20348;-77
2022/06/30 13:55:01;;;;;;;10.88;2.25;;;;;;;;;;5055980;28;20044;-77
2022/06/30 13:57:27;;;;;;;5.28;2.00;;;;;;;;;;5053137;28;20348;-77
2022/06/30 13:59:53;;;;;;;12.38;1.60;;;;;;;;;;5055967;28;20471;-77
2022/06/30 14:02:19;;;;;;;6.85;2.35;;;;;;;;;;5059781;28;20424;-77
2022/06/30 14:04:45;;;;;;;5.78;2.20;;;;;;;;;;5051416;28;20036;-77
2022/06/30 14:07:11;;;;;;;6.82;1.85;;;;;;;;;;5057204;28;20098;-78
2022/06/30 14:09:37;;;;;;;3.92;1.30;;;;;;;;;;5051351;28;20017;-77
2022/06/30 14:12:04;;;;;;;6.97;1.77;;;;;;;;;;5052496;28;20451;-77
2022/06/30 14:14:30;;;;;;;8.02;1.70;;;;;;;;;;5050870;28;20469;-78
2022/06/30 14:16:57;;;;;;;4.63;2.00;;;;;;;;;;5051691;28;20029;-76
2022/06/30 14:19:23;;;;;;;5.78;1.80;;;;;;;;;;5052173;28;20039;-78
2022/06/30 14:21:50;;;;;;;4.68;1.85;;;;;;;;;;5053415;28;20021;-76
2022/06/30 14:24:16;;;;;;;3.38;1.70;;;;;;;;;;5051335;28;20040;-78
2022/06/30 14:26:42;;;;;;;6.85;2.00;;;;;;;;;;5051167;28;20029;-78
2022/06/30 14:29:09;;;;;;;7.78;1.70;;;;;;;;;;5051771;28;20045;-78
2022/06/30 14:31:35;;;;;;;6.18;1.60;;;;;;;;;;5053877;28;20051;-78
2022/06/30 14:34:02;;;;;;;4.82;1.80;;;;;;;;;;5046582;28;20463;-78
2022/06/30 14:36:28;;;;;;;3.60;1.75;;;;;;;;;;5049827;28;20060;-78
2022/06/30 14:38:54;;;;;;;5.57;1.73;;;;;;;;;;5046738;28;20056;-77
2022/06/30 14:44:05;;;;;;;3.42;1.45;;;;;;;;;;5051646;28;20031;-77
2022/06/30 14:46:31;;;;;;;5.13;1.75;;;;;;;;;;5053334;28;20017;-77
2022/06/30 14:48:57;;;;;;;4.07;1.40;;;;;;;;;;5051415;28;20021;-78